Time;durP1;ratioP1;P1;durP2;ratioP2;P2;SDS_P1;SDS_P2;PMS_P1;PMS_P2;Temp;Humidity;BMP_temperature;BMP_pressure;BME280_temperature;BME280_humidity;BME280_pressure;Samples;Min_cycle;Max_cycle;Signal;HPM_P1;HPM_P2
2021/04/29 00:00:19;;;;;;;13.90;9.07;;;13.20;58.60;;;;;;5000241;28;20453;-51
2021/04/29 00:02:46;;;;;;;16.53;10.13;;;13.20;58.60;;;;;;5019068;28;20453;-54
2021/04/29 00:05:14;;;;;;;10.73;8.40;;;13.30;58.70;;;;;;5009010;28;20540;-51
2021/04/29 00:07:41;;;;;;;15.23;8.90;;;13.30;58.90;;;;;;4999031;28;20457;-53
2021/04/29 00:10:11;;;;;;;13.93;9.70;;;13.30;58.60;;;;;;5019078;28;20461;-51
2021/04/29 00:12:37;;;;;;;16.10;9.90;;;13.30;58.60;;;;;;5018150;28;20456;-54
2021/04/29 00:15:06;;;;;;;16.57;10.17;;;13.20;58.70;;;;;;5019338;28;20455;-52
2021/04/29 00:17:33;;;;;;;17.23;10.00;;;13.20;58.80;;;;;;5018939;28;20492;-53
2021/04/29 00:19:59;;;;;;;13.83;9.67;;;13.20;58.80;;;;;;5008880;28;20461;-52
2021/04/29 00:22:25;;;;;;;14.17;9.90;;;13.20;59.00;;;;;;4999973;28;20445;-53
2021/04/29 00:24:51;;;;;;;16.17;9.87;;;13.20;59.10;;;;;;5018801;28;20453;-54
2021/04/29 00:27:17;;;;;;;15.30;9.80;;;13.10;59.00;;;;;;5018796;28;20452;-53
2021/04/29 00:29:43;;;;;;;16.17;9.70;;;13.10;59.20;;;;;;5018268;28;20453;-48
2021/04/29 00:32:10;;;;;;;13.97;8.83;;;13.10;59.10;;;;;;5018194;28;20464;-50
2021/04/29 00:34:36;;;;;;;16.20;9.70;;;13.20;59.20;;;;;;5018384;28;20460;-53
2021/04/29 00:37:02;;;;;;;15.60;9.53;;;13.10;59.20;;;;;;5017780;28;21019;-49
2021/04/29 00:39:29;;;;;;;13.70;10.20;;;13.10;59.30;;;;;;5000022;28;20583;-53
2021/04/29 00:41:55;;;;;;;12.03;8.93;;;13.10;59.60;;;;;;4998466;28;20489;-54
2021/04/29 00:44:21;;;;;;;13.70;9.00;;;13.10;59.50;;;;;;4998560;28;20446;-48
2021/04/29 00:46:47;;;;;;;15.33;10.20;;;13.10;59.60;;;;;;5017938;28;20541;-51
2021/04/29 00:49:16;;;;;;;18.90;10.20;;;13.10;59.80;;;;;;5017283;28;20468;-48
2021/04/29 00:51:42;;;;;;;13.10;10.13;;;13.10;60.00;;;;;;5017470;28;20449;-52
2021/04/29 00:54:08;;;;;;;21.77;9.60;;;13.10;60.00;;;;;;5012774;28;20504;-53
2021/04/29 00:56:34;;;;;;;13.73;9.37;;;13.10;60.20;;;;;;4998548;28;20477;-54
2021/04/29 00:59:00;;;;;;;18.00;9.73;;;13.10;60.20;;;;;;4998361;28;20465;-54
2021/04/29 01:01:27;;;;;;;10.10;8.93;;;13.00;60.30;;;;;;5014488;28;20442;-54
2021/04/29 01:03:59;;;;;;;10.20;9.07;;;13.00;60.60;;;;;;5003550;28;20525;-50
2021/04/29 01:06:32;;;;;;;11.07;9.47;;;12.90;60.70;;;;;;5016168;28;20496;-53
2021/04/29 01:09:03;;;;;;;11.50;9.13;;;12.90;61.20;;;;;;4997638;28;20497;-46
2021/04/29 01:11:33;;;;;;;14.60;9.47;;;12.90;61.80;;;;;;4998758;28;20447;-52
2021/04/29 01:14:02;;;;;;;15.57;10.00;;;12.90;61.40;;;;;;5017627;28;20444;-48
2021/04/29 01:16:30;;;;;;;24.53;11.30;;;12.90;61.50;;;;;;4997954;28;20454;-53
2021/04/29 01:18:57;;;;;;;13.90;10.00;;;12.90;61.80;;;;;;4998072;28;20453;-54
2021/04/29 01:21:28;;;;;;;16.27;10.20;;;12.90;61.90;;;;;;4998256;28;20925;-50
2021/04/29 01:24:04;;;;;;;17.13;10.10;;;12.90;62.50;;;;;;5015548;28;20469;-50
2021/04/29 01:26:52;;;;;;;12.63;10.13;;;12.90;62.80;;;;;;5017622;28;20480;-51
2021/04/29 01:29:20;;;;;;;15.77;10.77;;;12.90;62.60;;;;;;5017832;28;20437;-53
2021/04/29 01:31:48;;;;;;;11.30;9.30;;;12.90;62.70;;;;;;5017383;28;20465;-51
2021/04/29 01:34:17;;;;;;;11.83;9.37;;;12.90;62.60;;;;;;4997993;28;20446;-52
2021/04/29 01:36:45;;;;;;;14.93;10.10;;;12.90;62.70;;;;;;4998101;28;20442;-53
2021/04/29 01:39:13;;;;;;;13.13;9.57;;;12.90;62.70;;;;;;4997850;28;20946;-55
2021/04/29 01:41:43;;;;;;;12.47;9.43;;;12.90;62.90;;;;;;5005524;28;20449;-50
2021/04/29 01:44:11;;;;;;;14.20;8.97;;;13.00;62.90;;;;;;5017162;28;20453;-53
2021/04/29 01:46:38;;;;;;;12.57;9.03;;;13.00;62.80;;;;;;5010001;28;20478;-53
2021/04/29 01:49:07;;;;;;;12.90;9.20;;;13.00;62.60;;;;;;4997205;28;20450;-52
2021/04/29 01:51:35;;;;;;;14.30;9.37;;;13.00;62.70;;;;;;5002546;28;20480;-51
2021/04/29 01:54:02;;;;;;;14.83;10.17;;;13.00;62.60;;;;;;5017209;28;20452;-50
2021/04/29 01:56:29;;;;;;;13.17;9.50;;;13.00;62.70;;;;;;5012416;28;20473;-55
2021/04/29 01:58:55;;;;;;;11.80;8.57;;;13.10;62.70;;;;;;4997566;28;20453;-52
2021/04/29 02:01:23;;;;;;;14.47;9.80;;;13.10;63.10;;;;;;4996955;28;20450;-52
2021/04/29 02:03:49;;;;;;;15.93;9.70;;;13.00;63.30;;;;;;4997415;28;20805;-54
2021/04/29 02:06:15;;;;;;;13.90;9.90;;;13.10;63.30;;;;;;5008325;28;20473;-54
2021/04/29 02:08:41;;;;;;;11.33;8.93;;;13.10;63.40;;;;;;5016658;28;20939;-52
2021/04/29 02:11:09;;;;;;;17.30;9.47;;;13.10;63.60;;;;;;5007728;28;20454;-50
2021/04/29 02:13:37;;;;;;;13.73;9.00;;;13.10;63.20;;;;;;4997001;28;20458;-53
2021/04/29 02:16:09;;;;;;;21.83;9.57;;;13.10;63.40;;;;;;5004724;28;20544;-51
2021/04/29 02:18:39;;;;;;;13.07;9.27;;;13.10;63.30;;;;;;5017084;28;20467;-52
2021/04/29 02:21:06;;;;;;;15.73;9.63;;;13.10;63.80;;;;;;5016173;28;20453;-53
2021/04/29 02:23:34;;;;;;;13.30;9.80;;;13.10;63.20;;;;;;5016523;28;20465;-52
2021/04/29 02:26:01;;;;;;;15.00;9.97;;;13.10;63.40;;;;;;5016170;28;20473;-52
2021/04/29 02:28:29;;;;;;;16.60;10.30;;;13.10;63.30;;;;;;5016694;28;20464;-51
2021/04/29 02:30:56;;;;;;;12.70;9.70;;;13.10;63.60;;;;;;5010774;28;20962;-55
2021/04/29 02:33:23;;;;;;;13.43;8.90;;;13.00;63.60;;;;;;4996539;28;20932;-49
2021/04/29 02:35:50;;;;;;;14.10;9.97;;;13.00;63.80;;;;;;4998249;28;20442;-51
2021/04/29 02:38:18;;;;;;;11.63;9.20;;;13.00;63.80;;;;;;4996622;28;20450;-53
2021/04/29 02:40:45;;;;;;;15.23;9.27;;;12.90;63.80;;;;;;5012269;28;20453;-49
2021/04/29 02:43:14;;;;;;;12.70;9.13;;;12.90;63.80;;;;;;5016162;28;20445;-54
2021/04/29 02:45:40;;;;;;;17.07;9.33;;;12.90;63.80;;;;;;5001637;28;20857;-55
2021/04/29 02:48:09;;;;;;;13.37;9.90;;;12.90;64.00;;;;;;4996240;28;20481;-55
2021/04/29 02:50:35;;;;;;;18.97;10.60;;;12.90;64.00;;;;;;4996047;28;20537;-55
2021/04/29 02:53:02;;;;;;;15.07;9.80;;;12.90;64.20;;;;;;4996917;28;20446;-54
2021/04/29 02:55:28;;;;;;;16.90;11.13;;;12.90;64.40;;;;;;4997009;28;20771;-50
2021/04/29 02:58:01;;;;;;;16.93;9.83;;;12.80;64.60;;;;;;4997351;28;20453;-52
2021/04/29 03:00:28;;;;;;;14.70;10.00;;;12.80;65.00;;;;;;5008559;28;20453;-50
2021/04/29 03:02:55;;;;;;;12.77;8.83;;;12.80;65.10;;;;;;5016780;28;20452;-53
2021/04/29 03:05:21;;;;;;;13.30;11.00;;;12.70;65.50;;;;;;5006597;28;20461;-52
2021/04/29 03:07:47;;;;;;;14.90;11.17;;;12.70;65.70;;;;;;4997320;28;20449;-54
2021/04/29 03:10:14;;;;;;;12.70;10.17;;;12.70;65.90;;;;;;4997440;28;20783;-51
2021/04/29 03:12:40;;;;;;;14.00;9.80;;;12.70;66.10;;;;;;4997051;28;20446;-55
2021/04/29 03:15:09;;;;;;;13.33;10.10;;;12.70;66.60;;;;;;4996542;28;20458;-52
2021/04/29 03:17:35;;;;;;;14.23;10.23;;;12.70;66.80;;;;;;4997155;28;20453;-48
2021/04/29 03:20:02;;;;;;;13.07;9.17;;;12.70;67.10;;;;;;5003096;28;20453;-52
2021/04/29 03:22:28;;;;;;;16.00;9.13;;;12.70;67.40;;;;;;5017617;28;20445;-46
2021/04/29 03:24:54;;;;;;;13.00;10.33;;;12.70;68.80;;;;;;5017455;28;20515;-52
2021/04/29 03:27:22;;;;;;;18.70;11.00;;;12.60;67.90;;;;;;5017143;28;21000;-51
2021/04/29 03:29:49;;;;;;;10.90;9.70;;;12.70;68.40;;;;;;5017044;28;20854;-49
2021/04/29 03:32:15;;;;;;;16.20;9.33;;;12.60;68.20;;;;;;5019643;28;20481;-51
2021/04/29 03:34:41;;;;;;;19.20;10.93;;;12.60;68.50;;;;;;5018989;28;20495;-50
2021/04/29 03:37:07;;;;;;;15.33;11.13;;;12.60;69.10;;;;;;5018245;28;20456;-50
2021/04/29 03:39:33;;;;;;;15.73;11.00;;;12.60;69.50;;;;;;5000114;28;20453;-51
2021/04/29 03:41:59;;;;;;;15.50;10.37;;;12.60;69.60;;;;;;5000602;28;20453;-48
2021/04/29 03:44:26;;;;;;;14.63;10.27;;;12.60;70.10;;;;;;5000497;28;20926;-52
2021/04/29 03:46:53;;;;;;;19.20;11.40;;;12.60;70.30;;;;;;5019098;28;20477;-48
2021/04/29 03:49:19;;;;;;;19.47;10.00;;;12.50;70.90;;;;;;5017912;28;20444;-53
2021/04/29 03:51:45;;;;;;;17.80;11.40;;;12.50;73.40;;;;;;5000678;28;20454;-51
2021/04/29 03:54:11;;;;;;;14.20;10.90;;;12.50;74.90;;;;;;5001104;28;20445;-48
2021/04/29 03:56:37;;;;;;;14.87;10.80;;;12.50;76.30;;;;;;5000209;28;20450;-54
2021/04/29 03:59:03;;;;;;;14.23;10.90;;;12.50;77.30;;;;;;4999866;28;20457;-52
2021/04/29 04:01:30;;;;;;;20.70;11.30;;;12.50;76.20;;;;;;4999592;28;20446;-53
2021/04/29 04:03:57;;;;;;;14.20;10.53;;;12.40;77.40;;;;;;5005918;28;20492;-51
2021/04/29 04:06:23;;;;;;;15.20;9.93;;;12.40;78.40;;;;;;5018927;28;20480;-54
2021/04/29 04:08:49;;;;;;;13.33;10.63;;;12.30;80.20;;;;;;5019237;28;20766;-49
2021/04/29 04:11:15;;;;;;;16.47;10.87;;;12.30;80.30;;;;;;5019704;28;20457;-48
2021/04/29 04:13:41;;;;;;;23.90;11.37;;;12.30;79.50;;;;;;5019305;28;20445;-51
2021/04/29 04:16:11;;;;;;;14.37;11.57;;;12.30;81.70;;;;;;5019829;28;20452;-53
2021/04/29 04:18:38;;;;;;;20.30;11.43;;;12.30;85.00;;;;;;5017526;28;20465;-52
2021/04/29 04:21:05;;;;;;;17.97;11.53;;;12.30;88.80;;;;;;4999777;28;20446;-48
2021/04/29 04:23:31;;;;;;;19.63;11.20;;;12.30;91.20;;;;;;4999653;28;20441;-48
2021/04/29 04:25:57;;;;;;;13.90;10.60;;;12.30;91.10;;;;;;5019413;28;20844;-54
2021/04/29 04:28:23;;;;;;;18.20;12.10;;;12.20;92.60;;;;;;5019159;28;20461;-51
2021/04/29 04:30:49;;;;;;;15.23;10.43;;;12.20;92.60;;;;;;5018930;28;20460;-52
2021/04/29 04:33:16;;;;;;;13.77;10.90;;;12.20;92.70;;;;;;5018220;28;20477;-52
2021/04/29 04:35:42;;;;;;;14.70;10.87;;;12.20;94.40;;;;;;5018641;28;20930;-56
2021/04/29 04:38:09;;;;;;;17.57;10.97;;;12.20;95.20;;;;;;5017717;28;20457;-51
2021/04/29 04:40:35;;;;;;;16.70;11.67;;;12.20;96.40;;;;;;5016726;28;20441;-55
2021/04/29 04:43:01;;;;;;;17.30;11.30;;;12.30;97.20;;;;;;5009077;28;20446;-54
2021/04/29 04:45:27;;;;;;;16.80;10.80;;;12.30;98.90;;;;;;5017172;28;20503;-51
2021/04/29 04:47:53;;;;;;;18.63;12.90;;;12.30;98.30;;;;;;5017119;28;20518;-49
2021/04/29 04:50:19;;;;;;;18.70;12.80;;;12.40;98.90;;;;;;5017129;28;20527;-53
2021/04/29 04:52:46;;;;;;;17.20;11.97;;;12.40;99.50;;;;;;5016639;28;20461;-52
2021/04/29 04:55:14;;;;;;;21.70;12.20;;;12.40;99.30;;;;;;5015572;28;20457;-54
2021/04/29 04:57:40;;;;;;;21.43;11.80;;;12.40;99.90;;;;;;5017300;28;20449;-55
2021/04/29 05:00:07;;;;;;;15.47;10.97;;;12.40;99.90;;;;;;5012650;28;20450;-52
2021/04/29 05:02:38;;;;;;;19.33;11.37;;;12.40;99.90;;;;;;5000130;28;20445;-53
2021/04/29 05:05:04;;;;;;;17.30;11.27;;;12.50;99.90;;;;;;4997624;28;20430;-52
2021/04/29 05:07:31;;;;;;;15.33;11.00;;;12.50;99.90;;;;;;5002604;28;20476;-54
2021/04/29 05:09:58;;;;;;;18.23;12.50;;;12.50;99.90;;;;;;5007350;28;20520;-54
2021/04/29 05:12:24;;;;;;;17.10;12.20;;;12.60;99.90;;;;;;5005345;28;20947;-51
2021/04/29 05:14:50;;;;;;;20.00;12.97;;;12.60;99.90;;;;;;5006559;28;20503;-52
2021/04/29 05:17:16;;;;;;;15.37;10.13;;;12.60;99.90;;;;;;5007027;28;20464;-50
2021/04/29 05:19:44;;;;;;;14.87;10.73;;;12.60;99.90;;;;;;5005514;28;20449;-53
2021/04/29 05:22:13;;;;;;;13.40;10.70;;;12.60;99.90;;;;;;5006860;28;20456;-52
2021/04/29 05:24:39;;;;;;;14.63;11.00;;;12.70;99.90;;;;;;5004258;28;20445;-53
2021/04/29 05:27:06;;;;;;;22.10;13.10;;;12.70;99.90;;;;;;5002479;28;20466;-51
2021/04/29 05:29:32;;;;;;;14.27;10.60;;;12.70;99.90;;;;;;5006605;28;20752;-51
2021/04/29 05:31:58;;;;;;;15.63;11.67;;;12.70;99.90;;;;;;5008147;28;21037;-47
2021/04/29 05:34:25;;;;;;;19.70;11.60;;;12.70;99.90;;;;;;5004934;28;20771;-50
2021/04/29 05:36:51;;;;;;;16.57;11.83;;;12.70;99.90;;;;;;5006635;28;20823;-55
2021/04/29 05:39:17;;;;;;;19.40;12.10;;;12.70;99.90;;;;;;5007821;28;20441;-52
2021/04/29 05:41:43;;;;;;;17.20;12.57;;;12.70;99.90;;;;;;5005013;28;20461;-54
2021/04/29 05:44:10;;;;;;;19.33;12.70;;;12.60;99.90;;;;;;5006965;28;20437;-54
2021/04/29 05:46:37;;;;;;;16.93;11.63;;;12.60;99.90;;;;;;4998782;28;20482;-50
2021/04/29 05:49:03;;;;;;;16.97;12.00;;;12.60;99.90;;;;;;4996719;28;20838;-52
2021/04/29 05:51:29;;;;;;;16.87;11.50;;;12.50;99.90;;;;;;4996350;28;20533;-55
2021/04/29 05:53:56;;;;;;;19.73;12.90;;;12.50;99.90;;;;;;4996340;28;20454;-51
2021/04/29 05:56:22;;;;;;;18.30;13.37;;;12.50;99.90;;;;;;4997232;28;20442;-53
2021/04/29 05:58:48;;;;;;;18.07;12.43;;;12.50;99.90;;;;;;5015083;28;20476;-53
2021/04/29 06:01:15;;;;;;;18.47;13.57;;;12.50;99.90;;;;;;5016079;28;20461;-54
2021/04/29 06:03:41;;;;;;;16.50;12.33;;;12.60;99.90;;;;;;5015969;28;20460;-51
2021/04/29 06:06:07;;;;;;;21.10;13.90;;;12.50;99.90;;;;;;5014943;28;20481;-56
2021/04/29 06:08:33;;;;;;;19.43;13.90;;;12.50;99.90;;;;;;4996524;28;20458;-52
2021/04/29 06:10:59;;;;;;;17.40;13.03;;;12.50;99.90;;;;;;4996136;28;20586;-51
2021/04/29 06:13:26;;;;;;;26.90;14.70;;;12.50;99.90;;;;;;4996282;28;20903;-53
2021/04/29 06:15:52;;;;;;;18.23;13.00;;;12.40;99.90;;;;;;4996136;28;20458;-52
2021/04/29 06:18:19;;;;;;;26.30;13.50;;;12.40;99.90;;;;;;4996361;28;20450;-55
2021/04/29 06:20:45;;;;;;;21.60;14.90;;;12.40;99.90;;;;;;4996195;28;20516;-49
2021/04/29 06:23:11;;;;;;;29.17;14.13;;;12.40;99.90;;;;;;4996273;28;20442;-53
2021/04/29 06:25:37;;;;;;;19.40;13.97;;;12.30;99.90;;;;;;4997934;28;20458;-50
2021/04/29 06:28:04;;;;;;;18.57;14.10;;;12.30;99.90;;;;;;4996840;28;20540;-49
2021/04/29 06:30:30;;;;;;;24.20;14.90;;;12.40;99.90;;;;;;4997907;28;20453;-50
2021/04/29 06:32:57;;;;;;;18.17;14.60;;;12.40;99.90;;;;;;4997807;28;20485;-51
2021/04/29 06:35:24;;;;;;;16.87;14.80;;;12.40;99.90;;;;;;4997418;28;20468;-53
2021/04/29 06:37:50;;;;;;;18.80;15.43;;;12.40;99.90;;;;;;5008690;28;20460;-49
2021/04/29 06:40:16;;;;;;;22.77;14.90;;;12.40;99.90;;;;;;5017029;28;20531;-51
2021/04/29 06:42:42;;;;;;;22.00;14.93;;;12.50;99.90;;;;;;5016729;28;20515;-53
2021/04/29 06:45:10;;;;;;;19.30;13.47;;;12.50;99.90;;;;;;5017327;28;20511;-49
2021/04/29 06:47:36;;;;;;;17.23;13.30;;;12.50;99.90;;;;;;5014466;28;20491;-51
2021/04/29 06:50:03;;;;;;;23.17;14.23;;;12.60;99.90;;;;;;5017274;28;20453;-50
2021/04/29 06:52:30;;;;;;;20.50;12.33;;;12.70;99.90;;;;;;5017426;28;20453;-48
2021/04/29 06:54:56;;;;;;;17.93;11.90;;;12.90;99.90;;;;;;5016937;28;20516;-52
2021/04/29 06:57:24;;;;;;;20.80;11.63;;;13.00;99.90;;;;;;5016517;28;20452;-53
2021/04/29 06:59:50;;;;;;;18.17;11.03;;;13.00;99.90;;;;;;5014588;28;20456;-51
2021/04/29 07:02:17;;;;;;;13.87;11.20;;;13.00;99.90;;;;;;4997480;28;20458;-52
2021/04/29 07:04:43;;;;;;;14.53;11.27;;;12.80;99.90;;;;;;5004696;28;20452;-54
2021/04/29 07:07:09;;;;;;;15.60;11.20;;;12.70;99.90;;;;;;5016525;28;20524;-54
2021/04/29 07:09:36;;;;;;;16.37;11.23;;;12.60;99.90;;;;;;5006131;28;20446;-50
2021/04/29 07:12:03;;;;;;;18.17;10.70;;;12.50;99.90;;;;;;5011463;28;20471;-52
2021/04/29 07:14:29;;;;;;;17.00;11.10;;;12.50;99.90;;;;;;5013886;28;20449;-54
2021/04/29 07:16:56;;;;;;;14.30;10.33;;;12.40;99.90;;;;;;5003062;28;20453;-48
2021/04/29 07:19:22;;;;;;;18.40;12.20;;;12.30;99.90;;;;;;5015266;28;20444;-53
2021/04/29 07:21:48;;;;;;;14.87;10.77;;;12.30;99.90;;;;;;5006621;28;20457;-53
2021/04/29 07:24:14;;;;;;;15.20;12.27;;;12.30;99.90;;;;;;5004555;28;20458;-48
2021/04/29 07:26:41;;;;;;;14.40;12.30;;;12.20;99.90;;;;;;4995457;28;20489;-54
2021/04/29 07:29:07;;;;;;;15.87;12.50;;;12.10;99.90;;;;;;4995503;28;20524;-55
2021/04/29 07:31:33;;;;;;;17.00;12.13;;;12.10;99.90;;;;;;5000453;28;20458;-54
2021/04/29 07:34:00;;;;;;;14.23;11.00;;;12.10;99.90;;;;;;5012239;28;20476;-52
2021/04/29 07:36:26;;;;;;;23.00;12.30;;;12.10;99.90;;;;;;5014481;28;20456;-48
2021/04/29 07:38:52;;;;;;;16.97;12.40;;;12.10;99.90;;;;;;5015088;28;20445;-51
2021/04/29 07:41:23;;;;;;;14.23;10.83;;;12.10;99.90;;;;;;5015527;28;20452;-53
2021/04/29 07:43:50;;;;;;;17.40;12.10;;;12.00;99.90;;;;;;5014963;28;20445;-53
2021/04/29 07:46:16;;;;;;;18.30;12.30;;;12.00;99.90;;;;;;5015110;28;20489;-52
2021/04/29 07:48:43;;;;;;;15.33;12.07;;;11.90;99.90;;;;;;5015264;28;20445;-55
2021/04/29 07:51:09;;;;;;;18.77;13.67;;;11.90;99.90;;;;;;5013233;28;20445;-53
2021/04/29 07:53:35;;;;;;;26.37;12.73;;;11.80;99.90;;;;;;5006071;28;20785;-51
2021/04/29 07:56:02;;;;;;;14.40;12.90;;;11.70;99.90;;;;;;5014431;28;20549;-51
2021/04/29 07:58:29;;;;;;;14.13;12.00;;;11.60;99.90;;;;;;5018420;28;20445;-53
2021/04/29 08:00:56;;;;;;;21.47;13.13;;;11.60;99.90;;;;;;5018976;28;20516;-55
2021/04/29 08:03:23;;;;;;;17.50;13.70;;;11.60;99.90;;;;;;5018446;28;20445;-55
2021/04/29 08:05:50;;;;;;;15.70;12.40;;;11.60;99.90;;;;;;5016276;28;20452;-51
2021/04/29 08:08:17;;;;;;;19.60;12.77;;;11.50;99.90;;;;;;5018688;28;20475;-51
2021/04/29 08:10:44;;;;;;;18.40;14.30;;;11.50;99.90;;;;;;5015913;28;20511;-51
2021/04/29 08:13:11;;;;;;;16.80;13.70;;;11.50;99.90;;;;;;5016293;28;20518;-51
2021/04/29 08:15:38;;;;;;;18.60;14.37;;;11.50;99.90;;;;;;5014697;28;20536;-49
2021/04/29 08:18:06;;;;;;;19.33;13.70;;;11.50;99.90;;;;;;5016001;28;20837;-50
2021/04/29 08:20:32;;;;;;;19.27;13.07;;;11.50;99.90;;;;;;5017832;28;20453;-54
2021/04/29 08:22:58;;;;;;;19.60;11.93;;;11.50;99.90;;;;;;5018344;28;20809;-52
2021/04/29 08:25:25;;;;;;;21.10;14.90;;;11.60;99.90;;;;;;5017804;28;20814;-54
2021/04/29 08:27:52;;;;;;;19.20;13.27;;;11.60;99.90;;;;;;5017682;28;20487;-55
2021/04/29 08:30:25;;;;;;;17.97;13.70;;;11.60;99.90;;;;;;5013411;28;20446;-54
2021/04/29 08:32:52;;;;;;;21.50;14.00;;;11.70;99.90;;;;;;5015745;28;20488;-55
2021/04/29 08:35:19;;;;;;;20.90;14.50;;;11.70;99.90;;;;;;4998126;28;20457;-54
2021/04/29 08:37:46;;;;;;;20.43;14.50;;;11.70;99.90;;;;;;5006575;28;20437;-53
2021/04/29 08:40:13;;;;;;;22.90;15.00;;;11.70;99.90;;;;;;5017681;28;20461;-51
2021/04/29 08:42:42;;;;;;;20.63;13.87;;;11.70;99.90;;;;;;5016285;28;20475;-55
2021/04/29 08:45:10;;;;;;;37.20;15.97;;;11.70;99.90;;;;;;5011342;28;20454;-49
2021/04/29 08:47:37;;;;;;;20.53;15.23;;;11.70;99.90;;;;;;5009086;28;20508;-53
2021/04/29 08:50:05;;;;;;;22.97;15.20;;;11.70;99.90;;;;;;5007955;28;20472;-51
2021/04/29 08:52:33;;;;;;;25.30;15.00;;;11.70;99.90;;;;;;5009554;28;20910;-51
2021/04/29 08:55:00;;;;;;;21.50;15.30;;;11.70;99.90;;;;;;5012936;28;20441;-53
2021/04/29 08:57:26;;;;;;;19.80;15.83;;;11.80;99.90;;;;;;5006256;28;20463;-53
2021/04/29 08:59:53;;;;;;;19.10;14.37;;;11.80;99.90;;;;;;5007643;28;20825;-55
2021/04/29 09:02:32;;;;;;;23.90;14.70;;;11.80;99.90;;;;;;5009013;28;20446;-54
2021/04/29 09:05:09;;;;;;;19.30;14.30;;;11.90;99.90;;;;;;5012427;28;20788;-52
2021/04/29 09:07:37;;;;;;;17.30;13.17;;;12.00;99.90;;;;;;5020114;28;20559;-46
2021/04/29 09:10:05;;;;;;;16.93;14.93;;;12.10;99.90;;;;;;5022055;28;20439;-47
2021/04/29 09:12:38;;;;;;;20.93;13.93;;;12.20;99.90;;;;;;5024937;28;20461;-46
2021/04/29 09:15:06;;;;;;;15.80;13.43;;;12.30;99.90;;;;;;5021324;28;20518;-48
2021/04/29 09:17:33;;;;;;;18.10;13.43;;;12.40;99.90;;;;;;5045511;28;20449;-46
2021/04/29 09:19:59;;;;;;;20.13;14.67;;;12.40;99.90;;;;;;5044376;28;20440;-49
2021/04/29 09:22:26;;;;;;;17.40;13.03;;;12.50;99.90;;;;;;5032553;28;20465;-43
2021/04/29 09:24:53;;;;;;;25.97;15.03;;;12.50;99.90;;;;;;5022788;28;20460;-47
2021/04/29 09:27:21;;;;;;;37.03;18.87;;;12.60;99.90;;;;;;5041150;28;20469;-56
2021/04/29 09:30:08;;;;;;;30.23;19.10;;;12.50;99.90;;;;;;5046394;28;20865;-58
2021/04/29 09:32:37;;;;;;;19.83;15.67;;;12.90;99.90;;;;;;5037041;28;20583;-57
2021/04/29 09:35:06;;;;;;;26.37;18.07;;;13.10;99.90;;;;;;5051982;28;20460;-56
2021/04/29 09:37:34;;;;;;;26.43;16.37;;;13.40;99.90;;;;;;5038015;28;20420;-58
2021/04/29 09:40:05;;;;;;;21.00;14.50;;;13.80;99.90;;;;;;5056432;28;20435;-58
2021/04/29 09:42:33;;;;;;;20.90;13.70;;;14.20;99.90;;;;;;5038819;28;20476;-57
2021/04/29 09:45:00;;;;;;;19.20;14.90;;;14.50;99.90;;;;;;5026788;28;20768;-55
2021/04/29 09:47:27;;;;;;;25.47;14.93;;;14.80;99.90;;;;;;5026217;28;20503;-57
2021/04/29 09:49:54;;;;;;;20.47;14.77;;;15.40;99.90;;;;;;5024841;28;20505;-58
2021/04/29 09:52:23;;;;;;;15.67;13.47;;;15.90;99.90;;;;;;5033153;28;20943;-59
2021/04/29 09:54:50;;;;;;;17.90;13.37;;;16.50;99.90;;;;;;5030132;28;20537;-58
2021/04/29 09:57:22;;;;;;;15.30;12.60;;;17.40;99.90;;;;;;5025260;28;20465;-57
2021/04/29 09:59:51;;;;;;;16.63;12.63;;;18.30;99.90;;;;;;5024779;28;20461;-56
2021/04/29 10:02:20;;;;;;;16.23;12.77;;;18.30;99.90;;;;;;5021697;28;20502;-58
2021/04/29 10:04:47;;;;;;;17.33;13.00;;;18.10;99.90;;;;;;5016404;28;21064;-59
2021/04/29 10:07:15;;;;;;;14.73;13.13;;;18.30;99.90;;;;;;5008539;28;20814;-58
2021/04/29 10:09:43;;;;;;;14.50;13.00;;;18.50;99.90;;;;;;5004929;28;20529;-57
2021/04/29 10:12:11;;;;;;;15.10;13.37;;;18.50;99.90;;;;;;5011323;28;20464;-58
2021/04/29 10:14:41;;;;;;;14.20;12.80;;;18.20;99.90;;;;;;5009007;28;20446;-55
2021/04/29 10:17:09;;;;;;;15.53;13.73;;;17.80;99.90;;;;;;5016491;28;20523;-56
2021/04/29 10:19:40;;;;;;;16.87;15.20;;;17.40;99.90;;;;;;5037295;28;20448;-55
2021/04/29 10:22:07;;;;;;;16.30;14.60;;;17.10;99.90;;;;;;5017213;28;20441;-54
2021/04/29 10:24:35;;;;;;;19.07;15.93;;;16.80;99.90;;;;;;5012667;28;20457;-55
2021/04/29 10:27:03;;;;;;;21.13;16.27;;;16.40;99.90;;;;;;5026015;28;20473;-56
2021/04/29 10:29:29;;;;;;;18.30;16.00;;;16.00;99.90;;;;;;5019948;28;20441;-47
2021/04/29 10:31:58;;;;;;;23.90;17.13;;;15.80;99.90;;;;;;5021616;28;20440;-47
2021/04/29 10:34:36;;;;;;;19.13;17.20;;;15.60;99.90;;;;;;5030085;28;20444;-46
2021/04/29 10:37:13;;;;;;;22.83;17.80;;;15.50;99.90;;;;;;5036020;28;20444;-45
2021/04/29 10:39:59;;;;;;;21.23;16.27;;;15.30;99.90;;;;;;5031435;28;20441;-50
2021/04/29 10:42:28;;;;;;;29.03;18.63;;;15.30;99.90;;;;;;5021418;28;20444;-47
2021/04/29 10:44:58;;;;;;;19.70;17.03;;;15.20;99.90;;;;;;5019944;28;20470;-47
2021/04/29 10:47:27;;;;;;;21.40;18.53;;;15.10;99.90;;;;;;5021168;28;20465;-45
2021/04/29 10:50:07;;;;;;;24.80;19.17;;;15.00;99.90;;;;;;5030495;28;20457;-47
2021/04/29 10:52:45;;;;;;;23.43;18.77;;;14.80;99.90;;;;;;5017881;28;20448;-46
2021/04/29 10:55:22;;;;;;;26.10;19.97;;;14.70;99.90;;;;;;5017626;28;20440;-48
2021/04/29 10:57:48;;;;;;;23.43;18.87;;;14.90;99.90;;;;;;5027486;28;20440;-46
2021/04/29 11:00:15;;;;;;;26.83;20.80;;;15.30;99.90;;;;;;5019565;28;20444;-47
2021/04/29 11:02:42;;;;;;;24.77;19.93;;;15.60;99.90;;;;;;5020669;28;20449;-48
2021/04/29 11:05:22;;;;;;;26.67;18.70;;;15.90;99.90;;;;;;5015318;28;20445;-44
2021/04/29 11:07:49;;;;;;;24.93;20.53;;;16.20;99.90;;;;;;5012922;28;20468;-51
2021/04/29 11:10:17;;;;;;;25.23;20.63;;;16.60;99.90;;;;;;5031882;28;20452;-45
2021/04/29 11:12:45;;;;;;;24.70;20.50;;;17.10;99.90;;;;;;5017340;28;20780;-48
2021/04/29 11:15:27;;;;;;;25.70;20.43;;;17.40;99.90;;;;;;5025316;28;20436;-44
2021/04/29 11:18:06;;;;;;;23.70;19.73;;;17.60;99.90;;;;;;5031441;28;20471;-46
2021/04/29 11:20:46;;;;;;;25.07;22.37;;;17.50;99.90;;;;;;5025760;28;20452;-51
2021/04/29 11:23:14;;;;;;;27.53;22.90;;;17.40;99.90;;;;;;5023210;28;20445;-52
2021/04/29 11:25:40;;;;;;;25.77;22.10;;;17.40;99.90;;;;;;5020148;28;20468;-46
2021/04/29 11:28:08;;;;;;;24.17;21.57;;;17.50;99.90;;;;;;5021019;28;20822;-49
2021/04/29 11:30:37;;;;;;;26.47;22.90;;;17.60;99.90;;;;;;5012939;28;20459;-47
2021/04/29 11:33:05;;;;;;;24.00;20.97;;;17.50;99.90;;;;;;5015811;28;20485;-48
2021/04/29 11:35:34;;;;;;;25.47;22.27;;;17.40;99.90;;;;;;5026947;28;20846;-44
2021/04/29 11:38:01;;;;;;;23.43;20.73;;;17.20;99.90;;;;;;5011812;28;20441;-46
2021/04/29 11:40:30;;;;;;;21.83;19.53;;;16.90;99.90;;;;;;5022744;28;20468;-44
2021/04/29 11:42:57;;;;;;;27.07;20.17;;;16.60;99.90;;;;;;5020329;28;21215;-46
2021/04/29 11:45:26;;;;;;;21.70;19.47;;;16.60;99.90;;;;;;5019179;28;20448;-47
2021/04/29 11:47:55;;;;;;;20.70;18.37;;;16.80;99.90;;;;;;5027427;28;21077;-46
2021/04/29 11:50:24;;;;;;;22.80;18.83;;;16.80;99.90;;;;;;5027281;28;20496;-47
2021/04/29 11:52:50;;;;;;;17.83;15.97;;;16.60;99.90;;;;;;5024498;28;20457;-47
2021/04/29 11:55:23;;;;;;;20.70;15.47;;;16.60;99.90;;;;;;5023497;28;20514;-47
2021/04/29 11:57:50;;;;;;;20.30;15.27;;;16.50;99.90;;;;;;5021300;28;20434;-48
2021/04/29 12:00:18;;;;;;;18.47;15.30;;;16.40;99.90;;;;;;5031459;28;20443;-46
2021/04/29 12:02:44;;;;;;;19.17;16.50;;;16.30;99.90;;;;;;5024631;28;20451;-47
2021/04/29 12:05:11;;;;;;;19.27;15.97;;;16.30;99.90;;;;;;5020321;28;20831;-46
2021/04/29 12:07:41;;;;;;;19.17;17.17;;;16.30;99.90;;;;;;5025571;28;20481;-47
2021/04/29 12:10:09;;;;;;;18.60;15.30;;;16.60;99.90;;;;;;5021085;28;20448;-47
2021/04/29 12:12:35;;;;;;;17.90;16.10;;;16.90;99.90;;;;;;5034189;28;20450;-45
2021/04/29 12:15:02;;;;;;;17.77;15.87;;;17.10;99.90;;;;;;5016434;28;20594;-46
2021/04/29 12:17:29;;;;;;;16.73;14.87;;;17.40;99.90;;;;;;5032264;28;20494;-47
2021/04/29 12:19:56;;;;;;;16.77;14.70;;;17.60;99.90;;;;;;5027515;28;20476;-46
2021/04/29 12:22:25;;;;;;;18.73;16.73;;;17.60;99.90;;;;;;5026255;28;20440;-44
2021/04/29 12:24:52;;;;;;;17.37;14.00;;;17.80;99.90;;;;;;5026800;28;20453;-46
2021/04/29 12:27:19;;;;;;;17.67;14.57;;;17.90;99.90;;;;;;5025794;28;20484;-44
2021/04/29 12:29:47;;;;;;;18.70;15.37;;;17.90;99.90;;;;;;5018652;28;20467;-47